Time;durP1;ratioP1;P1;durP2;ratioP2;P2;SDS_P1;SDS_P2;PMS_P1;PMS_P2;Temp;Humidity;BMP_temperature;BMP_pressure;BME280_temperature;BME280_humidity;BME280_pressure;Samples;Min_cycle;Max_cycle;Signal;HPM_P1;HPM_P2
2022/11/17 00:04:05;;;;;;;5.03;1.20;;;11.70;99.90;;;;;;10511298;28;20306;-78
2022/11/17 00:09:09;;;;;;;5.23;1.30;;;11.70;99.90;;;;;;10519305;28;20218;-76
2022/11/17 00:24:49;;;;;;;3.13;1.13;;;11.80;99.90;;;;;;10518192;28;20225;-77
2022/11/17 00:29:49;;;;;;;2.60;1.40;;;11.90;99.90;;;;;;10518793;28;20226;-77
2022/11/17 00:34:50;;;;;;;7.07;1.60;;;11.80;99.90;;;;;;10510582;28;20238;-77
2022/11/17 00:39:51;;;;;;;4.67;1.13;;;11.90;99.90;;;;;;10518458;28;20226;-78
2022/11/17 00:44:51;;;;;;;1.93;1.00;;;11.80;99.90;;;;;;10552066;27;20261;-79
2022/11/17 00:49:52;;;;;;;1.63;0.90;;;11.90;99.90;;;;;;10561588;27;20632;-79
2022/11/17 00:54:52;;;;;;;2.93;1.20;;;11.80;99.90;;;;;;10545655;27;20217;-81
2022/11/17 00:59:53;;;;;;;1.10;1.00;;;11.80;99.90;;;;;;10537076;27;20750;-80
2022/11/17 01:04:54;;;;;;;2.07;1.00;;;11.80;99.90;;;;;;10558468;27;20211;-81
2022/11/17 01:09:54;;;;;;;4.20;1.30;;;11.80;99.90;;;;;;10511970;28;20222;-80
2022/11/17 01:14:55;;;;;;;4.17;1.53;;;11.90;99.90;;;;;;10553708;27;20347;-80
2022/11/17 01:19:55;;;;;;;3.43;1.30;;;11.80;99.90;;;;;;10535638;28;20226;-80
2022/11/17 01:24:56;;;;;;;4.30;1.60;;;11.90;99.90;;;;;;10549158;27;20355;-77
2022/11/17 01:29:57;;;;;;;4.13;1.40;;;11.90;99.90;;;;;;10510354;28;21013;-78
2022/11/17 01:34:57;;;;;;;2.70;1.50;;;11.90;99.90;;;;;;10537571;27;20214;-78
2022/11/17 01:39:58;;;;;;;3.37;1.40;;;12.00;99.90;;;;;;10550167;27;20226;-80
2022/11/17 01:45:01;;;;;;;5.80;1.67;;;12.00;99.90;;;;;;10540925;28;20224;-78
2022/11/17 01:50:37;;;;;;;6.63;1.60;;;11.80;99.90;;;;;;10541762;28;20217;-78
2022/11/17 01:55:49;;;;;;;3.17;1.47;;;11.60;99.90;;;;;;10510218;28;20230;-80
2022/11/17 02:00:51;;;;;;;5.40;2.20;;;11.60;99.90;;;;;;10514405;28;20222;-79
2022/11/17 02:06:06;;;;;;;3.53;1.50;;;11.50;99.90;;;;;;10541249;28;20302;-77
2022/11/17 02:11:11;;;;;;;1.40;1.10;;;11.60;99.90;;;;;;10534622;28;20219;-79
2022/11/17 02:16:13;;;;;;;2.47;1.17;;;11.70;99.90;;;;;;10541740;28;20229;-77
2022/11/17 02:21:25;;;;;;;2.17;1.17;;;11.80;99.90;;;;;;10516031;28;20207;-78
2022/11/17 02:26:46;;;;;;;3.03;1.40;;;11.80;99.90;;;;;;10519438;28;20355;-78
2022/11/17 02:31:57;;;;;;;2.30;1.27;;;11.80;99.90;;;;;;10556988;27;20298;-78
2022/11/17 02:37:14;;;;;;;2.20;1.13;;;11.80;99.90;;;;;;10523429;28;20229;-80
2022/11/17 02:48:02;;;;;;;5.80;1.47;;;11.70;99.90;;;;;;10523694;28;20659;-79
2022/11/17 02:53:03;;;;;;;3.30;1.30;;;11.70;99.90;;;;;;10522379;28;20229;-79
2022/11/17 02:58:10;;;;;;;3.13;1.00;;;11.80;99.90;;;;;;10551773;27;20229;-77
2022/11/17 03:03:26;;;;;;;1.87;0.80;;;12.00;99.90;;;;;;10547788;27;20685;-76
2022/11/17 03:08:46;;;;;;;1.60;0.97;;;12.00;99.90;;;;;;10519775;28;20689;-77
2022/11/17 03:14:11;;;;;;;1.63;0.80;;;12.10;99.90;;;;;;10525748;28;20274;-77
2022/11/17 03:19:24;;;;;;;1.23;0.87;;;12.20;99.90;;;;;;10515135;28;20233;-78
2022/11/17 03:24:29;;;;;;;1.80;1.00;;;12.20;99.90;;;;;;10559964;27;20253;-78
2022/11/17 03:29:31;;;;;;;2.43;1.00;;;12.20;99.90;;;;;;10518110;28;20217;-76
2022/11/17 03:34:36;;;;;;;8.60;1.10;;;12.10;99.90;;;;;;10518820;28;20213;-76
2022/11/17 03:39:44;;;;;;;2.53;1.20;;;12.10;99.90;;;;;;10517627;28;20241;-79
2022/11/17 03:44:53;;;;;;;1.80;0.87;;;12.10;99.90;;;;;;10544881;27;20706;-75
2022/11/17 03:50:20;;;;;;;2.00;0.80;;;12.00;99.90;;;;;;10512062;28;20232;-79
2022/11/17 03:55:26;;;;;;;2.83;1.00;;;12.10;99.90;;;;;;10557986;27;20266;-78
2022/11/17 04:00:27;;;;;;;2.97;0.70;;;12.10;99.90;;;;;;10523928;28;20224;-76
2022/11/17 04:05:27;;;;;;;1.13;0.63;;;12.20;99.90;;;;;;10516237;28;20229;-78
2022/11/17 04:10:28;;;;;;;2.63;0.80;;;12.40;99.90;;;;;;10521704;28;20246;-80
2022/11/17 04:20:52;;;;;;;1.03;0.60;;;12.60;99.90;;;;;;10510724;28;20216;-78
2022/11/17 04:31:27;;;;;;;0.97;0.80;;;12.60;99.90;;;;;;10511523;28;20223;-77
2022/11/17 04:36:31;;;;;;;1.27;0.83;;;12.50;99.90;;;;;;10514398;28;20279;-79
2022/11/17 04:46:53;;;;;;;3.40;0.80;;;12.30;99.90;;;;;;10515099;28;20220;-74
2022/11/17 04:51:54;;;;;;;1.80;0.67;;;12.20;99.90;;;;;;10512090;28;20218;-74
2022/11/17 04:56:55;;;;;;;1.50;0.80;;;12.10;99.90;;;;;;10522474;28;20241;-81
2022/11/17 05:01:56;;;;;;;1.20;0.80;;;12.10;99.90;;;;;;10507743;28;20305;-73
2022/11/17 05:06:56;;;;;;;1.47;0.73;;;12.10;99.90;;;;;;10531581;28;20299;-73
2022/11/17 05:17:16;;;;;;;2.43;0.70;;;12.10;99.90;;;;;;10509205;28;20312;-70
2022/11/17 05:27:46;;;;;;;1.13;0.63;;;11.70;99.90;;;;;;10508084;28;20243;-69
2022/11/17 05:32:46;;;;;;;1.60;0.67;;;11.60;99.90;;;;;;10538784;27;20226;-70
2022/11/17 05:37:47;;;;;;;1.23;0.63;;;11.50;99.90;;;;;;10512970;28;20245;-72
2022/11/17 05:42:47;;;;;;;0.87;0.70;;;11.60;99.90;;;;;;10510404;28;20223;-73
2022/11/17 05:47:48;;;;;;;3.50;0.70;;;11.70;99.90;;;;;;10520160;28;20237;-71
2022/11/17 05:52:48;;;;;;;3.23;0.70;;;11.80;99.90;;;;;;10539973;27;20222;-71
2022/11/17 05:57:51;;;;;;;2.43;0.63;;;11.90;99.90;;;;;;10513916;28;20238;-72
2022/11/17 06:03:03;;;;;;;2.27;0.70;;;11.90;99.90;;;;;;10526630;28;20225;-72
2022/11/17 06:08:05;;;;;;;2.63;0.87;;;11.90;99.90;;;;;;10514549;28;20268;-72
2022/11/17 06:13:05;;;;;;;1.40;0.87;;;11.90;99.90;;;;;;10520970;28;20232;-73
2022/11/17 06:18:13;;;;;;;0.90;0.63;;;11.80;99.90;;;;;;10514400;28;20229;-72
2022/11/17 06:23:15;;;;;;;1.97;0.90;;;11.80;99.90;;;;;;10519186;28;20222;-71
2022/11/17 06:28:18;;;;;;;2.13;0.90;;;11.80;99.90;;;;;;10515103;28;20226;-72
2022/11/17 06:33:19;;;;;;;3.73;0.80;;;11.80;99.90;;;;;;10517566;28;20226;-71
2022/11/17 06:38:20;;;;;;;3.87;0.83;;;11.90;99.90;;;;;;10514820;28;20226;-72
2022/11/17 06:43:20;;;;;;;1.07;0.80;;;12.00;99.90;;;;;;10549888;27;20224;-72
2022/11/17 06:48:26;;;;;;;1.27;0.73;;;12.10;99.90;;;;;;10551834;27;20253;-70
2022/11/17 06:53:27;;;;;;;1.80;0.73;;;12.10;99.90;;;;;;10517127;28;20226;-73
2022/11/17 06:58:28;;;;;;;2.60;1.27;;;12.10;99.90;;;;;;10526242;28;20317;-72
2022/11/17 07:03:29;;;;;;;1.00;0.77;;;12.10;99.90;;;;;;10548053;27;20240;-73
2022/11/17 07:08:30;;;;;;;1.90;0.80;;;12.10;99.90;;;;;;10556272;27;20233;-72
2022/11/17 07:13:32;;;;;;;2.13;1.07;;;12.10;99.90;;;;;;10546802;27;20222;-73
2022/11/17 07:18:33;;;;;;;1.73;0.80;;;12.10;99.90;;;;;;10514837;28;20240;-73
2022/11/17 07:23:34;;;;;;;2.33;1.00;;;12.10;99.90;;;;;;10515910;28;20228;-72
2022/11/17 07:28:35;;;;;;;2.27;1.10;;;12.10;99.90;;;;;;10519149;28;20221;-73
2022/11/17 07:33:36;;;;;;;1.60;0.97;;;12.10;99.90;;;;;;10513591;28;20734;-72
2022/11/17 07:38:38;;;;;;;1.77;1.20;;;12.10;99.90;;;;;;10548392;27;20248;-73
2022/11/17 07:43:41;;;;;;;2.60;1.17;;;12.00;99.90;;;;;;10545423;27;20219;-73
2022/11/17 07:48:42;;;;;;;2.60;1.10;;;12.00;99.90;;;;;;10523942;28;20301;-71
2022/11/17 07:53:43;;;;;;;2.17;0.93;;;12.10;99.90;;;;;;10544112;27;20599;-72
2022/11/17 07:58:43;;;;;;;4.07;1.10;;;12.20;99.90;;;;;;10541893;27;20237;-73
2022/11/17 08:03:44;;;;;;;3.43;1.20;;;12.30;99.90;;;;;;10553265;27;20214;-72
2022/11/17 08:08:47;;;;;;;2.10;0.80;;;12.40;99.90;;;;;;10525172;28;20225;-72
2022/11/17 08:13:49;;;;;;;2.53;1.13;;;12.50;99.90;;;;;;10515436;28;20232;-73
2022/11/17 08:18:50;;;;;;;2.13;0.80;;;12.50;99.90;;;;;;10549512;27;20241;-71
2022/11/17 08:23:51;;;;;;;4.43;1.20;;;12.50;99.90;;;;;;10509123;28;20243;-71
2022/11/17 08:28:52;;;;;;;4.83;1.30;;;12.50;99.90;;;;;;10515867;28;20228;-72
2022/11/17 08:33:53;;;;;;;4.63;1.67;;;12.40;99.90;;;;;;10541139;27;20226;-71
2022/11/17 08:38:53;;;;;;;2.53;1.03;;;12.40;99.90;;;;;;10515555;28;20221;-72
2022/11/17 08:43:54;;;;;;;5.80;1.50;;;12.60;99.90;;;;;;10507635;28;20213;-71
2022/11/17 08:48:54;;;;;;;3.03;1.20;;;12.70;99.90;;;;;;10544556;27;20220;-73
2022/11/17 08:53:57;;;;;;;5.27;1.40;;;13.00;99.90;;;;;;10521388;28;20276;-73
2022/11/17 08:58:57;;;;;;;4.47;1.23;;;13.20;99.90;;;;;;10520292;28;20230;-73
2022/11/17 09:03:58;;;;;;;4.53;1.30;;;13.50;99.90;;;;;;10515776;28;20236;-71
2022/11/17 09:08:58;;;;;;;3.70;1.33;;;13.50;99.90;;;;;;10507295;28;20226;-71
2022/11/17 09:13:59;;;;;;;6.93;1.40;;;13.50;99.90;;;;;;10515285;28;20311;-73
2022/11/17 09:19:01;;;;;;;5.93;1.53;;;13.70;99.90;;;;;;10515213;28;20240;-73
2022/11/17 09:24:03;;;;;;;4.17;1.33;;;13.60;99.90;;;;;;10513127;28;20228;-72
2022/11/17 09:29:03;;;;;;;3.50;1.30;;;13.50;99.90;;;;;;10540179;27;20225;-73
2022/11/17 09:34:04;;;;;;;2.53;1.57;;;13.60;99.90;;;;;;10505453;28;20226;-71
2022/11/17 09:39:05;;;;;;;4.53;1.37;;;13.80;99.90;;;;;;10517793;28;20276;-73
2022/11/17 09:44:40;;;;;;;4.97;1.30;;;13.50;99.90;;;;;;10546053;28;20224;-72
2022/11/17 09:49:48;;;;;;;6.37;1.73;;;13.10;99.90;;;;;;10511654;28;20228;-71
2022/11/17 09:54:53;;;;;;;4.70;1.47;;;13.10;99.90;;;;;;10512708;28;20231;-72
2022/11/17 10:00:14;;;;;;;5.57;1.77;;;13.60;99.90;;;;;;10520421;28;20224;-73
2022/11/17 10:05:26;;;;;;;6.97;1.57;;;13.70;99.90;;;;;;10507240;28;20322;-72
2022/11/17 10:10:50;;;;;;;7.13;1.80;;;13.40;99.90;;;;;;10542189;28;20373;-72
2022/11/17 10:15:56;;;;;;;7.40;1.73;;;13.30;99.90;;;;;;10543748;28;20693;-72
2022/11/17 10:20:56;;;;;;;5.43;1.63;;;13.30;99.90;;;;;;10505607;28;20227;-73
2022/11/17 10:25:58;;;;;;;6.23;1.57;;;13.40;99.90;;;;;;10545754;28;20225;-73
2022/11/17 10:31:16;;;;;;;5.93;1.53;;;13.60;99.90;;;;;;10505209;28;20236;-71
2022/11/17 10:36:21;;;;;;;7.67;1.70;;;13.60;99.90;;;;;;10506328;28;20317;-72
2022/11/17 10:41:24;;;;;;;9.07;2.10;;;13.50;99.90;;;;;;10509978;28;20229;-71
2022/11/17 10:46:25;;;;;;;8.77;1.83;;;13.40;99.90;;;;;;10542877;28;20252;-72
2022/11/17 10:51:33;;;;;;;6.03;1.50;;;13.20;99.90;;;;;;10525012;28;20246;-72
2022/11/17 10:56:40;;;;;;;5.63;1.70;;;13.20;99.90;;;;;;10524627;28;20230;-72
2022/11/17 11:01:43;;;;;;;6.00;1.43;;;13.10;99.90;;;;;;10550493;27;20210;-72
2022/11/17 11:06:44;;;;;;;6.10;1.57;;;13.00;99.90;;;;;;10524638;28;20268;-71
2022/11/17 11:11:58;;;;;;;8.77;1.80;;;13.00;99.90;;;;;;10513201;28;20758;-71
2022/11/17 11:17:07;;;;;;;7.83;2.13;;;13.10;99.90;;;;;;10543514;27;20264;-71
2022/11/17 11:22:27;;;;;;;5.50;1.70;;;12.90;99.90;;;;;;10543655;27;20226;-74
2022/11/17 11:27:30;;;;;;;9.27;1.80;;;12.60;99.90;;;;;;10515347;28;20253;-72
2022/11/17 11:32:49;;;;;;;6.77;1.80;;;12.60;99.90;;;;;;10547518;27;20248;-72
2022/11/17 11:38:08;;;;;;;4.00;1.20;;;12.80;99.90;;;;;;10519823;28;20250;-72
2022/11/17 11:43:24;;;;;;;6.30;1.67;;;12.90;99.90;;;;;;10525528;28;20224;-72
2022/11/17 11:48:32;;;;;;;3.87;1.13;;;13.00;99.90;;;;;;10546306;27;20312;-72
2022/11/17 11:53:51;;;;;;;6.83;1.70;;;12.80;99.90;;;;;;10519581;28;20317;-71
2022/11/17 11:59:23;;;;;;;7.07;1.33;;;12.50;99.90;;;;;;10508315;28;20237;-73
2022/11/17 12:04:32;;;;;;;5.37;1.60;;;12.30;99.90;;;;;;10545516;27;20317;-74
2022/11/17 12:09:43;;;;;;;3.90;1.33;;;12.10;99.90;;;;;;10545460;27;20230;-72
2022/11/17 12:15:12;;;;;;;4.57;1.47;;;12.10;99.90;;;;;;10517538;28;20217;-72
2022/11/17 12:20:37;;;;;;;5.37;1.80;;;12.30;99.90;;;;;;10510556;28;20242;-74
2022/11/17 12:25:45;;;;;;;5.83;1.80;;;12.30;99.90;;;;;;10518459;28;20221;-72
2022/11/17 12:30:45;;;;;;;6.50;1.70;;;12.20;99.90;;;;;;10514412;28;20342;-72
2022/11/17 12:36:25;;;;;;;6.77;1.63;;;12.00;99.90;;;;;;10508195;28;20848;-70
2022/11/17 12:41:47;;;;;;;7.10;1.83;;;11.90;99.90;;;;;;10548566;27;20218;-72
2022/11/17 12:46:53;;;;;;;6.13;1.63;;;12.10;99.90;;;;;;10514531;28;20256;-72
2022/11/17 12:52:01;;;;;;;5.87;1.67;;;12.30;99.90;;;;;;10546843;27;20227;-72
2022/11/17 12:57:09;;;;;;;6.80;1.70;;;12.40;99.90;;;;;;10515075;28;20267;-71
2022/11/17 13:02:39;;;;;;;6.50;1.63;;;12.60;99.90;;;;;;10512145;28;20218;-71
2022/11/17 13:07:41;;;;;;;5.07;1.70;;;12.70;99.90;;;;;;10512368;28;20301;-74
2022/11/17 13:12:42;;;;;;;6.30;1.57;;;12.70;99.90;;;;;;10513538;28;20242;-71
2022/11/17 13:17:43;;;;;;;4.47;1.50;;;12.50;99.90;;;;;;10541906;27;21145;-72
2022/11/17 13:23:08;;;;;;;3.23;1.47;;;12.40;99.90;;;;;;10544871;27;20230;-72
2022/11/17 13:28:29;;;;;;;5.10;1.50;;;12.50;99.90;;;;;;10514836;28;20272;-73
2022/11/17 13:33:31;;;;;;;3.87;1.07;;;12.60;99.90;;;;;;10538340;27;20231;-73
2022/11/17 13:38:32;;;;;;;2.80;1.10;;;12.60;99.90;;;;;;10510293;28;20224;-72
2022/11/17 13:43:38;;;;;;;5.03;1.50;;;12.60;99.90;;;;;;10514591;28;20213;-71
2022/11/17 13:48:41;;;;;;;4.90;1.37;;;12.80;99.90;;;;;;10541149;28;20677;-74
2022/11/17 13:53:46;;;;;;;5.00;1.20;;;12.90;99.90;;;;;;10512219;28;20766;-76
2022/11/17 13:58:54;;;;;;;6.20;1.20;;;12.80;99.90;;;;;;10507884;28;20320;-72
2022/11/17 14:04:19;;;;;;;6.07;1.30;;;12.60;99.90;;;;;;10521334;28;20704;-71
2022/11/17 14:09:21;;;;;;;6.57;1.80;;;12.50;99.90;;;;;;10523661;28;20225;-72
2022/11/17 14:14:35;;;;;;;3.97;1.30;;;12.30;99.90;;;;;;10510775;28;20223;-73
2022/11/17 14:19:38;;;;;;;4.17;1.20;;;12.30;99.90;;;;;;10543193;28;20237;-76
2022/11/17 14:24:39;;;;;;;5.30;1.90;;;12.20;99.90;;;;;;10517880;28;20794;-76
2022/11/17 14:29:40;;;;;;;7.40;2.03;;;12.20;99.90;;;;;;10520559;28;20396;-77
2022/11/17 14:34:40;;;;;;;9.33;2.03;;;12.20;99.90;;;;;;10515598;28;20233;-75
2022/11/17 14:39:41;;;;;;;4.23;1.40;;;12.30;99.90;;;;;;10519248;28;20219;-77
2022/11/17 14:44:42;;;;;;;7.87;2.17;;;12.20;99.90;;;;;;10519118;28;20256;-76
2022/11/17 14:49:42;;;;;;;6.53;1.87;;;12.10;99.90;;;;;;10532973;28;20647;-77
2022/11/17 14:54:43;;;;;;;5.60;1.70;;;11.90;99.90;;;;;;10512958;28;20309;-77
2022/11/17 14:59:43;;;;;;;6.03;1.83;;;11.80;99.90;;;;;;10514122;28;20227;-76
2022/11/17 15:04:44;;;;;;;8.77;2.67;;;11.80;99.90;;;;;;10518649;28;20607;-76
2022/11/17 15:09:44;;;;;;;8.10;1.73;;;11.70;99.90;;;;;;10521726;28;20209;-77
2022/11/17 15:14:48;;;;;;;6.40;1.90;;;11.70;99.90;;;;;;10520577;28;20621;-77
2022/11/17 15:19:49;;;;;;;6.03;1.53;;;11.60;99.90;;;;;;10520534;28;20234;-77
2022/11/17 15:24:49;;;;;;;5.10;1.43;;;11.50;99.90;;;;;;10512977;28;20642;-77
2022/11/17 15:29:50;;;;;;;6.17;2.40;;;11.40;99.90;;;;;;10521669;28;20384;-76
2022/11/17 15:34:50;;;;;;;4.20;1.30;;;11.20;99.90;;;;;;10544315;27;20748;-77
2022/11/17 15:39:51;;;;;;;4.60;1.57;;;11.20;99.90;;;;;;10550832;27;20347;-76
2022/11/17 15:44:51;;;;;;;3.77;1.47;;;11.10;99.90;;;;;;10512533;28;20468;-77
2022/11/17 15:49:57;;;;;;;7.10;1.67;;;11.00;99.90;;;;;;10518314;28;20226;-76
2022/11/17 15:54:57;;;;;;;5.53;1.30;;;10.90;99.90;;;;;;10511150;28;20229;-78
2022/11/17 15:59:59;;;;;;;4.23;1.10;;;10.80;99.90;;;;;;10543372;27;20772;-77
2022/11/17 16:05:00;;;;;;;4.97;1.13;;;10.70;99.90;;;;;;10542753;27;20828;-76
2022/11/17 16:10:00;;;;;;;5.07;1.43;;;10.70;99.90;;;;;;10547310;27;20209;-77
2022/11/17 16:15:01;;;;;;;5.00;1.40;;;10.60;99.90;;;;;;10516822;28;20589;-74
2022/11/17 16:20:02;;;;;;;4.67;0.93;;;10.50;99.90;;;;;;10541419;27;20226;-79
2022/11/17 16:25:04;;;;;;;3.57;1.50;;;10.40;99.90;;;;;;10517248;28;20586;-77
2022/11/17 16:30:05;;;;;;;3.47;1.27;;;10.40;99.90;;;;;;10517514;28;20665;-76
2022/11/17 16:35:06;;;;;;;6.07;1.50;;;10.30;99.90;;;;;;10515503;28;20327;-76
2022/11/17 16:40:08;;;;;;;4.87;1.70;;;10.40;99.90;;;;;;10509149;28;20287;-76
2022/11/17 16:45:09;;;;;;;5.53;1.30;;;10.40;99.90;;;;;;10515318;28;20209;-77
2022/11/17 16:50:10;;;;;;;3.17;1.30;;;10.40;99.90;;;;;;10549641;27;20676;-77
2022/11/17 16:55:10;;;;;;;4.13;1.53;;;10.40;99.90;;;;;;10515047;28;20548;-75
2022/11/17 17:00:13;;;;;;;3.60;1.60;;;10.40;99.90;;;;;;10553804;27;20205;-76
2022/11/17 17:05:14;;;;;;;3.53;1.20;;;10.40;99.90;;;;;;10509813;28;20668;-76
2022/11/17 17:10:15;;;;;;;3.33;1.70;;;10.40;99.90;;;;;;10516434;28;20213;-77
2022/11/17 17:15:16;;;;;;;5.47;2.43;;;10.40;99.90;;;;;;10514400;28;20196;-77
2022/11/17 17:20:16;;;;;;;4.27;2.33;;;10.40;99.90;;;;;;10517906;28;20220;-76
2022/11/17 17:25:17;;;;;;;4.33;2.07;;;10.30;99.90;;;;;;10509484;28;20179;-71
2022/11/17 17:30:18;;;;;;;4.10;2.50;;;10.20;99.90;;;;;;10522867;28;20666;-71
2022/11/17 17:35:18;;;;;;;5.43;2.10;;;10.20;99.90;;;;;;10514402;28;20182;-72
2022/11/17 17:40:19;;;;;;;3.50;2.30;;;10.20;99.90;;;;;;10543997;27;20213;-72
2022/11/17 17:45:19;;;;;;;5.13;1.90;;;10.20;99.90;;;;;;10508642;28;20179;-76
2022/11/17 17:50:20;;;;;;;5.07;1.67;;;10.20;99.90;;;;;;10544276;27;20603;-77
2022/11/17 17:55:21;;;;;;;2.53;1.60;;;10.10;99.90;;;;;;10509308;28;20283;-78
2022/11/17 18:00:21;;;;;;;3.23;1.30;;;10.10;99.90;;;;;;10552712;27;20218;-76
2022/11/17 18:05:22;;;;;;;4.13;2.13;;;10.10;99.90;;;;;;10518289;28;20748;-77
2022/11/17 18:10:22;;;;;;;5.97;2.07;;;10.10;99.90;;;;;;10552117;27;20644;-79
2022/11/17 18:15:23;;;;;;;5.13;2.30;;;10.10;99.90;;;;;;10557848;27;20213;-77
2022/11/17 18:20:23;;;;;;;7.03;2.37;;;10.10;99.90;;;;;;10551832;27;20233;-77
2022/11/17 18:25:24;;;;;;;6.47;2.73;;;10.10;99.90;;;;;;10525055;28;20221;-77
2022/11/17 18:30:24;;;;;;;4.90;3.00;;;10.10;99.90;;;;;;10551506;27;20712;-75
2022/11/17 18:35:26;;;;;;;5.60;3.10;;;10.00;99.90;;;;;;10522711;28;20248;-77
2022/11/17 18:40:29;;;;;;;10.07;3.53;;;9.90;99.90;;;;;;10546437;27;20231;-76
2022/11/17 18:45:37;;;;;;;4.80;1.90;;;9.80;99.90;;;;;;10518445;28;20213;-76
2022/11/17 18:50:43;;;;;;;6.27;2.57;;;9.80;99.90;;;;;;10517962;28;20214;-79
2022/11/17 18:55:43;;;;;;;8.00;2.87;;;9.90;99.90;;;;;;10519735;28;20214;-78
2022/11/17 19:00:46;;;;;;;8.17;3.13;;;10.00;99.90;;;;;;10529172;28;20279;-78
2022/11/17 19:05:47;;;;;;;7.37;2.57;;;10.20;99.90;;;;;;10546180;27;20218;-80
2022/11/17 19:10:52;;;;;;;4.07;2.17;;;10.20;99.90;;;;;;10518952;28;20222;-76
2022/11/17 19:16:02;;;;;;;4.37;1.87;;;10.30;99.90;;;;;;10545458;27;20586;-76
2022/11/17 19:21:13;;;;;;;5.27;2.73;;;10.40;99.90;;;;;;10512147;28;20219;-75
2022/11/17 19:26:18;;;;;;;4.00;2.27;;;10.40;99.90;;;;;;10517383;28;20222;-75
2022/11/17 19:31:19;;;;;;;3.93;1.90;;;10.40;99.90;;;;;;10523282;28;20241;-78
2022/11/17 19:36:22;;;;;;;3.90;2.20;;;10.30;99.90;;;;;;10518624;28;20713;-78
2022/11/17 19:41:25;;;;;;;4.70;2.20;;;10.30;99.90;;;;;;10510934;28;20216;-83
2022/11/17 19:46:27;;;;;;;5.47;2.47;;;10.40;99.90;;;;;;10516336;28;20250;-78
2022/11/17 19:51:29;;;;;;;5.37;3.60;;;10.40;99.90;;;;;;10549618;27;20229;-78
2022/11/17 19:56:31;;;;;;;7.30;3.20;;;10.40;99.90;;;;;;10538892;28;20815;-80
2022/11/17 20:01:32;;;;;;;9.93;3.53;;;10.30;99.90;;;;;;10538263;28;20282;-81
2022/11/17 20:06:36;;;;;;;9.30;4.00;;;10.40;99.90;;;;;;10559220;27;20589;-76
2022/11/17 20:11:37;;;;;;;8.03;4.10;;;10.30;99.90;;;;;;10523396;28;20232;-77
2022/11/17 20:16:38;;;;;;;6.67;4.10;;;10.20;99.90;;;;;;10526965;28;20243;-77
2022/11/17 20:21:39;;;;;;;8.47;3.90;;;10.00;99.90;;;;;;10527646;28;20361;-75
2022/11/17 20:26:41;;;;;;;8.43;4.00;;;9.80;99.90;;;;;;10558238;27;20233;-75
2022/11/17 20:31:42;;;;;;;8.90;4.07;;;9.60;99.90;;;;;;10553486;27;20639;-73
2022/11/17 20:36:42;;;;;;;8.17;4.07;;;9.50;99.90;;;;;;10527994;28;20221;-72
2022/11/17 20:41:43;;;;;;;11.10;4.20;;;9.40;99.90;;;;;;10532116;28;20239;-76
2022/11/17 20:46:44;;;;;;;9.83;4.57;;;9.40;99.90;;;;;;10531154;28;20224;-79
2022/11/17 20:51:44;;;;;;;11.77;5.50;;;9.30;99.90;;;;;;10526893;28;20355;-76
2022/11/17 20:56:45;;;;;;;7.20;3.90;;;9.20;99.90;;;;;;10526155;28;20217;-76
2022/11/17 21:01:45;;;;;;;11.07;5.33;;;9.20;99.90;;;;;;10529091;28;20723;-75
2022/11/17 21:06:46;;;;;;;10.03;6.53;;;9.10;99.90;;;;;;10528061;28;20244;-76
2022/11/17 21:11:56;;;;;;;15.37;8.73;;;9.00;99.90;;;;;;10530473;28;20260;-73
2022/11/17 21:16:59;;;;;;;21.27;13.03;;;9.00;99.90;;;;;;10522230;28;20243;-71
2022/11/17 21:22:01;;;;;;;15.57;10.65;;;9.00;99.90;;;;;;10521301;28;20424;-75
2022/11/17 21:27:02;;;;;;;14.50;7.33;;;9.10;99.90;;;;;;10532256;28;20226;-78
2022/11/17 21:32:02;;;;;;;8.93;5.30;;;9.10;99.90;;;;;;10531591;28;20274;-77
2022/11/17 21:37:03;;;;;;;8.77;5.10;;;9.20;99.90;;;;;;10538113;27;20765;-80
2022/11/17 21:42:04;;;;;;;8.77;4.77;;;9.30;99.90;;;;;;10519011;28;20222;-79
2022/11/17 21:47:06;;;;;;;8.00;4.67;;;9.40;99.90;;;;;;10517181;28;20218;-80
2022/11/17 21:52:08;;;;;;;8.87;4.40;;;9.40;99.90;;;;;;10565386;27;20367;-80
2022/11/17 21:57:09;;;;;;;6.93;4.27;;;9.50;99.90;;;;;;10567647;28;20319;-80
2022/11/17 22:02:10;;;;;;;7.87;4.10;;;9.60;99.90;;;;;;10555066;28;20864;-79
2022/11/17 22:07:11;;;;;;;9.23;4.60;;;9.60;99.90;;;;;;10563204;27;20229;-80
2022/11/17 22:12:12;;;;;;;7.57;3.90;;;9.70;99.90;;;;;;10533164;28;20292;-80
2022/11/17 22:17:13;;;;;;;9.17;3.80;;;9.80;99.90;;;;;;10519569;28;20232;-78
2022/11/17 22:22:16;;;;;;;7.73;3.40;;;9.80;99.90;;;;;;10521300;28;20220;-79
2022/11/17 22:27:16;;;;;;;8.77;4.13;;;9.90;99.90;;;;;;10547210;28;20228;-80
2022/11/17 22:32:17;;;;;;;7.47;3.63;;;10.00;99.90;;;;;;10564126;27;20225;-79
2022/11/17 22:37:18;;;;;;;7.97;3.50;;;10.00;99.90;;;;;;10529831;28;20225;-78
2022/11/17 22:42:18;;;;;;;6.57;3.00;;;10.00;99.90;;;;;;10523301;28;20234;-77
2022/11/17 22:47:19;;;;;;;9.23;5.37;;;9.90;99.90;;;;;;10567285;27;20241;-77
2022/11/17 22:52:20;;;;;;;6.83;4.03;;;9.70;99.90;;;;;;10536989;28;20706;-78
2022/11/17 22:57:20;;;;;;;6.17;3.47;;;9.60;99.90;;;;;;10537239;28;20303;-77
2022/11/17 23:02:21;;;;;;;7.07;2.83;;;9.50;99.90;;;;;;10534512;28;20275;-76
2022/11/17 23:07:21;;;;;;;5.60;3.13;;;9.40;99.90;;;;;;10546263;27;20213;-76
2022/11/17 23:12:22;;;;;;;5.30;3.33;;;9.40;99.90;;;;;;10528263;28;20225;-76
2022/11/17 23:17:23;;;;;;;9.50;3.40;;;9.40;99.90;;;;;;10523146;28;20225;-76
2022/11/17 23:22:24;;;;;;;5.90;3.43;;;9.40;99.90;;;;;;10565872;27;20305;-76
2022/11/17 23:27:25;;;;;;;6.77;3.57;;;9.40;99.90;;;;;;10567845;27;20308;-81
2022/11/17 23:32:26;;;;;;;4.07;3.10;;;9.30;99.90;;;;;;10535292;28;20217;-84
2022/11/17 23:37:27;;;;;;;5.30;3.43;;;9.20;99.90;;;;;;10538057;28;20229;-83
2022/11/17 23:42:31;;;;;;;4.73;3.47;;;9.20;99.90;;;;;;10580851;27;20253;-77
2022/11/17 23:47:31;;;;;;;5.40;4.43;;;9.10;99.90;;;;;;10557765;27;20222;-81
2022/11/17 23:52:32;;;;;;;6.53;4.63;;;9.20;99.90;;;;;;10558959;27;20217;-77
2022/11/17 23:57:33;;;;;;;6.93;4.80;;;9.10;99.90;;;;;;10552148;27;20229;-77
